Bookmark and Share
Track history (hours):
 

Hyundai Forward

Last reported at 2014-Apr-16 16:03 UTC. Time now 2014-Apr-24 14:13 UTC.
Position N 27°52' W 078°09'.

Length 294 m; draft 10.7 m.

Type: Ship (hazmat cat A). MMSI: 372652000.

NotesDate/timePositionNaut miles runAvg speedWind from/ knotsBaromVisibWave heightAir tempDewpointWater temp
2014-Apr-16 16:03N 27°52' W 078°09'2515.3
2014-Apr-16 14:26N 28°10' W 078°29'  
2014-Apr-13 14:25N 36°45' W 075°32'1110.8
2014-Apr-13 13:22N 36°48' W 075°46'8 9.5
2014-Apr-13 12:33N 36°53' W 075°53'9 9.0
2014-Apr-13 11:33N 36°57' W 076°03'1413.6
2014-Apr-13 10:34N 36°58' W 076°20'3 2.8
2014-Apr-13 09:33N 36°56' W 076°20'0 0.0
2014-Apr-13 08:31N 36°56' W 076°20'0 0.0
2014-Apr-13 07:19N 36°56' W 076°20'0 0.0
2014-Apr-13 06:31N 36°56' W 076°20'0 0.0
2014-Apr-13 05:26N 36°56' W 076°20'0 0.0
2014-Apr-13 04:32N 36°56' W 076°20'0 0.0
2014-Apr-13 03:31N 36°56' W 076°20'0 0.0
2014-Apr-13 02:28N 36°56' W 076°20'0 0.0
2014-Apr-13 01:31N 36°56' W 076°20'0 0.0
2014-Apr-12 22:23N 36°56' W 076°20'0 0.0
2014-Apr-12 21:28N 36°56' W 076°20'0 0.0
2014-Apr-12 20:33N 36°56' W 076°20'3 3.4
2014-Apr-12 19:34N 36°59' W 076°20'1313.2
2014-Apr-12 18:33N 36°58' W 076°03'9 8.8
2014-Apr-12 17:33N 36°54' W 075°53'9 8.8
2014-Apr-12 16:33N 36°49' W 075°44'158 9.2
2014-Apr-11 23:23N 39°03' W 073°57'8 9.2
2014-Apr-11 22:33N 39°10' W 073°54'9 9.2
2014-Apr-11 21:33N 39°20' W 073°53'9 9.3
2014-Apr-11 20:33N 39°29' W 073°53'9 9.1
2014-Apr-11 19:33N 39°38' W 073°53'9 9.3
2014-Apr-11 18:32N 39°47' W 073°52'9 9.4
2014-Apr-11 17:33N 39°57' W 073°51'10 9.4
2014-Apr-11 16:27N 40°07' W 073°50'18 9.5
2014-Apr-11 14:33N 40°25' W 073°49'8 8.4
2014-Apr-11 13:33N 40°30' W 073°57'1111.1
2014-Apr-11 12:33N 40°39' W 074°06'2 2.3
2014-Apr-11 11:33N 40°41' W 074°08'0 0.0
2014-Apr-11 10:30N 40°41' W 074°08'0 0.0
2014-Apr-11 09:33N 40°41' W 074°08'0 0.0
2014-Apr-11 08:33N 40°41' W 074°08'0 0.0
2014-Apr-11 07:30N 40°41' W 074°08'0 0.0
2014-Apr-11 06:33N 40°41' W 074°08'0 0.0
2014-Apr-11 05:33N 40°41' W 074°08'0 0.0
2014-Apr-11 04:33N 40°41' W 074°08'0 0.0
2014-Apr-11 03:33N 40°41' W 074°08'0 0.0
2014-Apr-11 02:33N 40°41' W 074°08'0 0.0
2014-Apr-11 01:33N 40°41' W 074°08'0 0.0
2014-Apr-11 00:33N 40°41' W 074°08'0 0.0
2014-Apr-10 23:33N 40°41' W 074°08'0 0.0
2014-Apr-10 22:33N 40°41' W 074°08'0 0.0
2014-Apr-10 21:33N 40°41' W 074°08'2 1.8
2014-Apr-10 20:33N 40°39' W 074°09'5 5.2
2014-Apr-10 19:34N 40°37' W 074°03'1211.8
2014-Apr-10 18:33N 40°28' W 073°52'7 7.1
2014-Apr-10 17:34N 40°23' W 073°47'9 8.5
2014-Apr-10 16:34N 40°14' W 073°45'1211.4
2014-Apr-10 15:32N 40°03' W 073°44'1615.6
2014-Apr-10 14:31N 39°47' W 073°42'1818.6
2014-Apr-10 13:32N 39°29' W 073°45'  

Dump ship's entire track history

sailing weather and tide predictions

Hyundai Forward — 3EJY9 — position and weather